KNZY/NZY METAR and TAF weather

Enter ICAO airport designator
Station Type Date Time Source
KNZY METAR 2019/04/24 16:19 UTC NOAA

KNZY 241619Z 18006KT 2SM BR OVC004 15/13 A3003 RMK AO2 DZE19 CIG 002V007 P0000 T01500133


Station Type Date Time Source
KNZY Decoded METAR 2019/04/24 16:19 UTC NOAA

NAS NORTH ISLAND, SAN DIEGO, CA, United States (KNZY) 32-42N 117-13W 14M
Apr 24, 2019 - 12:19 PM EDT / 2019.04.24 1619 UTC
Wind: from the S (180 degrees) at 7 MPH (6 KT):0
Visibility: 2 mile(s):0
Sky conditions: overcast
Weather: mist
Precipitation last hour: A trace
Temperature: 59.0 F (15.0 C)
Dew Point: 55.9 F (13.3 C)
Relative Humidity: 89%
Pressure (altimeter): 30.03 in. Hg (1016 hPa)
ob: KNZY 241619Z 18006KT 2SM BR OVC004 15/13 A3003 RMK AO2 DZE19 CIG 002V007 P0000 T01500133
cycle: 16

Station Type Date Time Source
KNZY TAF 2019/04/24 15:59 UTC NOAA

TAF KNZY 2415/2515 VRB06KT 1600 -DZ BR OVC002 QNH2997INS
TEMPO 2415/2417 18006KT 4800 BR BKN005
BECMG 2417/2418 24009KT 9999 NSW FEW010 SCT250 QNH2990INS
FM250200 VRB06KT 9999 SCT005 SCT250 QNH2992INS
FM250700 VRB06KT 4800 BR BKN004 QNH2993INS T21/2422Z T13/2513Z FS30103

Example: see airport list